Wetterdaten: Woche 01.07.13 - 07.07.13 (KW27)
Datum Zeit Temperatur Luftfeuchte Luftdruck Niederschlag Windrichtung Sonnenschein Solar Wind
01.07.2013 00:00 12,0 C 93 % 1020,3 hPa 0,0 l/m N 0,00 h 0 W/m 0,1 km/h (0 Bft)
01.07.2013 01:00 11,4 C 94 % 1019,9 hPa 0,0 l/m N 0,00 h 0 W/m 0,5 km/h (0 Bft)
01.07.2013 02:00 10,5 C 95 % 1019,7 hPa 0,0 l/m N 0,00 h 0 W/m 0,7 km/h (0 Bft)
01.07.2013 03:00 10,4 C 95 % 1019,2 hPa 0,0 l/m N 0,00 h 0 W/m 1,5 km/h (1 Bft)
01.07.2013 04:00 10,1 C 96 % 1018,9 hPa 0,0 l/m NW 0,00 h 0 W/m 3,1 km/h (1 Bft)
01.07.2013 05:00 9,4 C 96 % 1018,8 hPa 0,0 l/m N 0,00 h 8 W/m 0,0 km/h (0 Bft)
01.07.2013 06:00 10,0 C 97 % 1018,6 hPa 0,0 l/m NW 0,00 h 61 W/m 1,7 km/h (1 Bft)
01.07.2013 07:00 12,4 C 90 % 1018,7 hPa 0,0 l/m NW 0,92 h 201 W/m 4,9 km/h (1 Bft)
01.07.2013 08:00 14,9 C 79 % 1018,5 hPa 0,0 l/m NO 1,00 h 366 W/m 4,1 km/h (1 Bft)
01.07.2013 09:00 16,8 C 72 % 1018,2 hPa 0,0 l/m O-SO 1,00 h 535 W/m 6,8 km/h (2 Bft)
01.07.2013 10:00 18,3 C 67 % 1017,8 hPa 0,0 l/m S 0,92 h 659 W/m 6,6 km/h (2 Bft)
01.07.2013 11:00 19,5 C 58 % 1017,5 hPa 0,0 l/m SO 0,92 h 762 W/m 6,5 km/h (2 Bft)
01.07.2013 12:00 20,1 C 55 % 1017,4 hPa 0,0 l/m O 0,58 h 631 W/m 7,1 km/h (2 Bft)
01.07.2013 13:00 21,2 C 55 % 1016,9 hPa 0,0 l/m O 0,75 h 787 W/m 7,8 km/h (2 Bft)
01.07.2013 14:00 22,3 C 52 % 1016,2 hPa 0,0 l/m N-NW 1,00 h 936 W/m 8,8 km/h (2 Bft)
01.07.2013 15:00 23,0 C 51 % 1015,8 hPa 0,0 l/m W-NW 1,00 h 842 W/m 8,6 km/h (2 Bft)
01.07.2013 16:00 23,8 C 47 % 1015,4 hPa 0,0 l/m W 1,00 h 732 W/m 6,9 km/h (2 Bft)
01.07.2013 17:00 24,2 C 47 % 1014,8 hPa 0,0 l/m O 0,92 h 571 W/m 9,1 km/h (2 Bft)
01.07.2013 18:00 23,9 C 47 % 1014,6 hPa 0,0 l/m O 1,00 h 420 W/m 7,4 km/h (2 Bft)
01.07.2013 19:00 23,2 C 48 % 1014,3 hPa 0,0 l/m O 1,00 h 237 W/m 5,7 km/h (1 Bft)
01.07.2013 20:00 20,6 C 63 % 1014,0 hPa 0,0 l/m N 0,33 h 50 W/m 0,8 km/h (0 Bft)
01.07.2013 21:00 17,0 C 77 % 1014,2 hPa 0,0 l/m N 0,00 h 7 W/m 0,1 km/h (0 Bft)
01.07.2013 22:00 15,3 C 81 % 1014,6 hPa 0,0 l/m N 0,00 h 0 W/m 0,0 km/h (0 Bft)
01.07.2013 23:00 13,8 C 87 % 1014,7 hPa 0,0 l/m N 0,00 h 0 W/m 0,0 km/h (0 Bft)
02.07.2013 00:00 13,0 C 91 % 1014,6 hPa 0,0 l/m N 0,00 h 0 W/m 0,1 km/h (0 Bft)
02.07.2013 01:00 12,5 C 92 % 1014,5 hPa 0,0 l/m N 0,00 h 0 W/m 0,0 km/h (0 Bft)
02.07.2013 02:00 11,7 C 93 % 1014,4 hPa 0,0 l/m N 0,00 h 0 W/m 1,2 km/h (1 Bft)
02.07.2013 03:00 11,2 C 95 % 1014,3 hPa 0,0 l/m N 0,00 h 0 W/m 0,0 km/h (0 Bft)
02.07.2013 04:00 11,3 C 96 % 1014,6 hPa 0,0 l/m N 0,00 h 0 W/m 0,1 km/h (0 Bft)
02.07.2013 05:00 10,9 C 96 % 1014,8 hPa 0,0 l/m N 0,00 h 8 W/m 0,0 km/h (0 Bft)
02.07.2013 06:00 11,3 C 97 % 1015,0 hPa 0,0 l/m N 0,00 h 50 W/m 0,0 km/h (0 Bft)
02.07.2013 07:00 12,9 C 93 % 1015,1 hPa 0,0 l/m N 0,83 h 192 W/m 0,5 km/h (0 Bft)
02.07.2013 08:00 16,1 C 86 % 1015,3 hPa 0,0 l/m N 1,00 h 346 W/m 1,6 km/h (1 Bft)
02.07.2013 09:00 18,8 C 76 % 1015,3 hPa 0,0 l/m N 0,92 h 482 W/m 2,4 km/h (1 Bft)
02.07.2013 10:00 20,9 C 65 % 1015,1 hPa 0,0 l/m S-SW 0,92 h 647 W/m 3,9 km/h (1 Bft)
02.07.2013 11:00 22,1 C 62 % 1014,6 hPa 0,0 l/m W-SW 1,00 h 778 W/m 11,3 km/h (2 Bft)
02.07.2013 12:00 23,2 C 54 % 1014,3 hPa 0,0 l/m W-SW 1,00 h 833 W/m 14,0 km/h (3 Bft)
02.07.2013 13:00 24,2 C 50 % 1013,8 hPa 0,0 l/m W-SW 1,00 h 779 W/m 14,5 km/h (3 Bft)
02.07.2013 14:00 25,2 C 49 % 1013,3 hPa 0,0 l/m SW 1,00 h 862 W/m 15,4 km/h (3 Bft)
02.07.2013 15:00 26,1 C 46 % 1012,6 hPa 0,0 l/m W-SW 1,00 h 828 W/m 15,2 km/h (3 Bft)
02.07.2013 16:00 26,4 C 43 % 1012,0 hPa 0,0 l/m W-SW 1,00 h 719 W/m 19,2 km/h (3 Bft)
02.07.2013 17:00 26,4 C 42 % 1011,4 hPa 0,0 l/m W-SW 1,00 h 545 W/m 10,7 km/h (2 Bft)
02.07.2013 18:00 25,5 C 45 % 1010,8 hPa 0,0 l/m W-SW 0,83 h 287 W/m 8,8 km/h (2 Bft)
02.07.2013 19:00 23,3 C 56 % 1011,1 hPa 0,0 l/m W-SW 0,00 h 75 W/m 9,4 km/h (2 Bft)
02.07.2013 20:00 21,9 C 61 % 1011,1 hPa 0,0 l/m W-SW 0,00 h 26 W/m 9,7 km/h (2 Bft)
02.07.2013 21:00 20,9 C 64 % 1011,5 hPa 0,0 l/m SW 0,00 h 7 W/m 12,0 km/h (2 Bft)
02.07.2013 22:00 19,4 C 68 % 1012,0 hPa 0,0 l/m SW 0,00 h 0 W/m 14,0 km/h (3 Bft)
02.07.2013 23:00 18,0 C 73 % 1012,0 hPa 0,0 l/m SW 0,00 h 0 W/m 18,9 km/h (3 Bft)
03.07.2013 00:00 17,3 C 76 % 1011,6 hPa 0,0 l/m SW 0,00 h 0 W/m 16,0 km/h (3 Bft)
03.07.2013 01:00 17,0 C 76 % 1011,2 hPa 0,0 l/m SW 0,00 h 0 W/m 13,0 km/h (3 Bft)
03.07.2013 02:00 16,8 C 76 % 1010,7 hPa 0,0 l/m SW 0,00 h 0 W/m 8,7 km/h (2 Bft)
03.07.2013 03:00 16,8 C 77 % 1010,5 hPa 0,0 l/m W-SW 0,00 h 0 W/m 17,2 km/h (3 Bft)
03.07.2013 04:00 16,2 C 82 % 1010,2 hPa 0,0 l/m SW 0,00 h 0 W/m 11,2 km/h (2 Bft)
03.07.2013 05:00 15,6 C 86 % 1009,7 hPa 0,0 l/m SW 0,00 h 8 W/m 9,2 km/h (2 Bft)
03.07.2013 06:00 15,6 C 88 % 1009,3 hPa 0,0 l/m SW 0,00 h 24 W/m 5,3 km/h (1 Bft)
03.07.2013 07:00 15,8 C 89 % 1009,2 hPa 0,0 l/m SW 0,00 h 38 W/m 5,7 km/h (1 Bft)
03.07.2013 08:00 16,9 C 81 % 1009,6 hPa 0,0 l/m SW 0,00 h 70 W/m 10,9 km/h (2 Bft)
03.07.2013 09:00 17,4 C 79 % 1009,9 hPa 0,0 l/m W-SW 0,00 h 116 W/m 16,6 km/h (3 Bft)
03.07.2013 10:00 16,0 C 88 % 1010,2 hPa 0,6 l/m W-SW 0,00 h 54 W/m 12,3 km/h (3 Bft)
03.07.2013 11:00 15,8 C 92 % 1010,5 hPa 0,4 l/m SW 0,00 h 112 W/m 17,8 km/h (3 Bft)
03.07.2013 12:00 15,7 C 92 % 1010,8 hPa 0,6 l/m W-SW 0,00 h 148 W/m 20,5 km/h (4 Bft)
03.07.2013 13:00 15,6 C 93 % 1011,1 hPa 1,4 l/m W-SW 0,00 h 111 W/m 16,2 km/h (3 Bft)
03.07.2013 14:00 15,2 C 95 % 1011,1 hPa 0,0 l/m SW 0,00 h 70 W/m 11,8 km/h (2 Bft)
03.07.2013 15:00 15,4 C 95 % 1011,3 hPa 0,0 l/m SW 0,00 h 76 W/m 17,4 km/h (3 Bft)
03.07.2013 16:00 15,3 C 96 % 1011,7 hPa 0,0 l/m SW 0,00 h 60 W/m 15,8 km/h (3 Bft)
03.07.2013 17:00 15,8 C 96 % 1012,1 hPa 0,0 l/m SW 0,00 h 137 W/m 17,3 km/h (3 Bft)
03.07.2013 18:00 16,3 C 94 % 1012,0 hPa 0,0 l/m SW 0,25 h 148 W/m 14,1 km/h (3 Bft)
03.07.2013 19:00 16,9 C 93 % 1012,2 hPa 0,0 l/m SW 0,08 h 93 W/m 13,6 km/h (3 Bft)
03.07.2013 20:00 16,1 C 95 % 1012,8 hPa 0,2 l/m SW 0,00 h 19 W/m 10,6 km/h (2 Bft)
03.07.2013 21:00 15,8 C 96 % 1013,5 hPa 0,0 l/m SW 0,00 h 9 W/m 10,9 km/h (2 Bft)
03.07.2013 22:00 15,4 C 96 % 1014,4 hPa 0,0 l/m SW 0,00 h 0 W/m 9,5 km/h (2 Bft)
03.07.2013 23:00 15,3 C 96 % 1014,8 hPa 0,0 l/m SW 0,00 h 0 W/m 6,8 km/h (2 Bft)
04.07.2013 00:00 14,9 C 97 % 1015,1 hPa 0,0 l/m W-SW 0,00 h 0 W/m 2,7 km/h (1 Bft)
04.07.2013 01:00 14,8 C 98 % 1015,3 hPa 0,0 l/m N 0,00 h 0 W/m 1,5 km/h (1 Bft)
04.07.2013 02:00 15,0 C 98 % 1015,4 hPa 0,0 l/m N 0,00 h 0 W/m 0,5 km/h (0 Bft)
04.07.2013 03:00 15,0 C 99 % 1015,3 hPa 0,0 l/m N 0,00 h 0 W/m 0,0 km/h (0 Bft)
04.07.2013 04:00 15,1 C 99 % 1015,4 hPa 0,2 l/m W-SW 0,00 h 0 W/m 2,7 km/h (1 Bft)
04.07.2013 05:00 15,0 C 99 % 1015,9 hPa 0,0 l/m W-SW 0,00 h 5 W/m 6,1 km/h (2 Bft)
04.07.2013 06:00 15,0 C 99 % 1016,3 hPa 0,0 l/m SW 0,00 h 17 W/m 6,1 km/h (2 Bft)
04.07.2013 07:00 15,2 C 99 % 1016,8 hPa 0,6 l/m SW 0,00 h 39 W/m 5,7 km/h (1 Bft)
04.07.2013 08:00 16,1 C 96 % 1017,3 hPa 0,0 l/m SW 0,00 h 132 W/m 3,5 km/h (1 Bft)
04.07.2013 09:00 17,1 C 91 % 1017,8 hPa 0,0 l/m W-SW 0,25 h 273 W/m 8,4 km/h (2 Bft)
04.07.2013 10:00 18,0 C 86 % 1018,2 hPa 0,0 l/m W 0,25 h 276 W/m 8,3 km/h (2 Bft)
04.07.2013 11:00 18,9 C 83 % 1018,5 hPa 0,0 l/m SW 0,33 h 505 W/m 7,5 km/h (2 Bft)
04.07.2013 12:00 19,6 C 80 % 1018,7 hPa 0,0 l/m SW 0,08 h 152 W/m 9,8 km/h (2 Bft)
04.07.2013 13:00 19,2 C 81 % 1018,8 hPa 0,0 l/m N 0,08 h 222 W/m 2,0 km/h (1 Bft)
04.07.2013 14:00 20,5 C 74 % 1018,8 hPa 0,0 l/m W-SW 0,00 h 189 W/m 6,0 km/h (2 Bft)
04.07.2013 15:00 19,3 C 82 % 1019,2 hPa 0,0 l/m NW 0,00 h 72 W/m 6,6 km/h (2 Bft)
04.07.2013 16:00 19,7 C 79 % 1019,6 hPa 0,0 l/m N-NO 0,25 h 365 W/m 15,0 km/h (3 Bft)
04.07.2013 17:00 19,3 C 79 % 1020,0 hPa 0,0 l/m N-NO 0,08 h 200 W/m 15,6 km/h (3 Bft)
04.07.2013 18:00 20,6 C 73 % 1020,1 hPa 0,0 l/m N-NO 0,92 h 427 W/m 14,4 km/h (3 Bft)
04.07.2013 19:00 20,4 C 72 % 1020,4 hPa 0,0 l/m N 0,33 h 136 W/m 11,0 km/h (2 Bft)
04.07.2013 20:00 19,0 C 79 % 1021,0 hPa 0,0 l/m N 0,00 h 11 W/m 5,1 km/h (1 Bft)
04.07.2013 21:00 18,3 C 86 % 1021,6 hPa 0,0 l/m N 0,00 h 0 W/m 1,6 km/h (1 Bft)
04.07.2013 22:00 17,4 C 91 % 1022,4 hPa 0,2 l/m N 0,00 h 0 W/m 1,6 km/h (1 Bft)
04.07.2013 23:00 16,9 C 94 % 1022,7 hPa 7,6 l/m NO 0,00 h 0 W/m 5,3 km/h (1 Bft)
05.07.2013 00:00 16,2 C 96 % 1023,2 hPa 1,4 l/m S 0,00 h 0 W/m 2,5 km/h (1 Bft)
05.07.2013 01:00 15,9 C 97 % 1023,3 hPa 0,8 l/m N 0,00 h 0 W/m 2,4 km/h (1 Bft)
05.07.2013 02:00 15,6 C 98 % 1023,5 hPa 0,2 l/m N-NO 0,00 h 0 W/m 6,3 km/h (2 Bft)
05.07.2013 03:00 15,2 C 98 % 1023,5 hPa 0,0 l/m N 0,00 h 0 W/m 6,2 km/h (2 Bft)
05.07.2013 04:00 14,9 C 98 % 1023,5 hPa 0,0 l/m N 0,00 h 0 W/m 2,8 km/h (1 Bft)
05.07.2013 05:00 14,6 C 98 % 1023,8 hPa 0,0 l/m N 0,00 h 0 W/m 1,6 km/h (1 Bft)
05.07.2013 06:00 14,7 C 98 % 1024,1 hPa 0,0 l/m N 0,00 h 13 W/m 0,9 km/h (0 Bft)
05.07.2013 07:00 15,0 C 98 % 1024,3 hPa 0,0 l/m N 0,00 h 45 W/m 1,3 km/h (1 Bft)
05.07.2013 08:00 15,4 C 97 % 1024,8 hPa 0,0 l/m N 0,00 h 100 W/m 3,3 km/h (1 Bft)
05.07.2013 09:00 16,3 C 91 % 1025,1 hPa 0,0 l/m N 0,00 h 160 W/m 5,9 km/h (2 Bft)
05.07.2013 10:00 17,4 C 88 % 1025,2 hPa 0,0 l/m O 0,00 h 242 W/m 6,7 km/h (2 Bft)
05.07.2013 11:00 18,3 C 86 % 1025,2 hPa 0,0 l/m O-NO 0,00 h 186 W/m 5,6 km/h (1 Bft)
05.07.2013 12:00 18,2 C 85 % 1025,2 hPa 0,0 l/m O-NO 0,00 h 132 W/m 4,7 km/h (1 Bft)
05.07.2013 13:00 18,5 C 85 % 1025,3 hPa 0,0 l/m O-NO 0,00 h 159 W/m 5,1 km/h (1 Bft)
05.07.2013 14:00 19,4 C 81 % 1025,1 hPa 0,0 l/m O-NO 0,00 h 229 W/m 5,7 km/h (1 Bft)
05.07.2013 15:00 20,4 C 77 % 1024,9 hPa 0,0 l/m O-NO 0,00 h 268 W/m 9,4 km/h (2 Bft)
05.07.2013 16:00 21,0 C 73 % 1024,5 hPa 0,0 l/m O-NO 0,00 h 249 W/m 10,6 km/h (2 Bft)
05.07.2013 17:00 21,7 C 68 % 1024,3 hPa 0,0 l/m O-NO 0,33 h 323 W/m 12,2 km/h (2 Bft)
05.07.2013 18:00 21,3 C 67 % 1024,1 hPa 0,0 l/m NO 0,00 h 197 W/m 9,8 km/h (2 Bft)
05.07.2013 19:00 21,1 C 70 % 1024,2 hPa 0,0 l/m O-NO 0,42 h 155 W/m 9,0 km/h (2 Bft)
05.07.2013 20:00 19,8 C 77 % 1024,5 hPa 0,0 l/m O-NO 0,00 h 43 W/m 5,1 km/h (1 Bft)
05.07.2013 21:00 17,7 C 86 % 1024,8 hPa 0,0 l/m N 0,08 h 8 W/m 3,1 km/h (1 Bft)
05.07.2013 22:00 16,2 C 92 % 1025,4 hPa 0,0 l/m N 0,00 h 0 W/m 2,1 km/h (1 Bft)
05.07.2013 23:00 15,8 C 93 % 1025,7 hPa 0,0 l/m NO 0,00 h 0 W/m 5,1 km/h (1 Bft)
06.07.2013 00:00 15,2 C 93 % 1025,8 hPa 0,0 l/m NO 0,00 h 0 W/m 2,8 km/h (1 Bft)
06.07.2013 01:00 15,1 C 94 % 1025,6 hPa 0,0 l/m NO 0,00 h 0 W/m 4,7 km/h (1 Bft)
06.07.2013 02:00 14,8 C 93 % 1025,2 hPa 0,0 l/m N-NO 0,00 h 0 W/m 8,3 km/h (2 Bft)
06.07.2013 03:00 14,1 C 95 % 1024,8 hPa 0,0 l/m N-NO 0,00 h 0 W/m 5,1 km/h (1 Bft)
06.07.2013 04:00 13,7 C 96 % 1024,6 hPa 0,0 l/m N-NO 0,00 h 0 W/m 4,1 km/h (1 Bft)
06.07.2013 05:00 13,4 C 96 % 1024,7 hPa 0,0 l/m N-NO 0,00 h 8 W/m 3,6 km/h (1 Bft)
06.07.2013 06:00 13,7 C 96 % 1024,8 hPa 0,0 l/m N-NO 0,00 h 49 W/m 6,8 km/h (2 Bft)
06.07.2013 07:00 15,3 C 92 % 1024,5 hPa 0,0 l/m N-NO 0,67 h 173 W/m 9,4 km/h (2 Bft)
06.07.2013 08:00 16,9 C 87 % 1024,4 hPa 0,0 l/m NO 1,00 h 325 W/m 10,5 km/h (2 Bft)
06.07.2013 09:00 18,6 C 83 % 1024,3 hPa 0,0 l/m NO 1,00 h 495 W/m 14,2 km/h (3 Bft)
06.07.2013 10:00 20,4 C 76 % 1024,0 hPa 0,0 l/m O-NO 1,00 h 655 W/m 17,0 km/h (3 Bft)
06.07.2013 11:00 21,6 C 72 % 1024,1 hPa 0,0 l/m O-NO 0,67 h 589 W/m 18,2 km/h (3 Bft)
06.07.2013 12:00 22,9 C 66 % 1024,0 hPa 0,0 l/m O 0,92 h 877 W/m 23,1 km/h (4 Bft)
06.07.2013 13:00 23,8 C 61 % 1023,6 hPa 0,0 l/m O-NO 0,92 h 848 W/m 22,4 km/h (4 Bft)
06.07.2013 14:00 24,6 C 58 % 1023,4 hPa 0,0 l/m NO 1,00 h 887 W/m 23,0 km/h (4 Bft)
06.07.2013 15:00 24,6 C 54 % 1023,2 hPa 0,0 l/m NO 0,75 h 664 W/m 20,5 km/h (4 Bft)
06.07.2013 16:00 25,2 C 51 % 1022,9 hPa 0,0 l/m NO 1,00 h 722 W/m 20,4 km/h (4 Bft)
06.07.2013 17:00 24,9 C 51 % 1022,6 hPa 0,0 l/m O 0,75 h 441 W/m 17,6 km/h (3 Bft)
06.07.2013 18:00 24,0 C 55 % 1022,5 hPa 0,0 l/m O-NO 0,42 h 195 W/m 15,8 km/h (3 Bft)
06.07.2013 19:00 23,4 C 58 % 1022,5 hPa 0,0 l/m NO 1,00 h 218 W/m 17,2 km/h (3 Bft)
06.07.2013 20:00 22,0 C 63 % 1022,7 hPa 0,0 l/m O-NO 0,08 h 47 W/m 11,1 km/h (2 Bft)
06.07.2013 21:00 20,2 C 70 % 1023,1 hPa 0,0 l/m O-NO 0,08 h 9 W/m 5,5 km/h (1 Bft)
06.07.2013 22:00 18,1 C 79 % 1023,5 hPa 0,0 l/m N 0,00 h 0 W/m 1,6 km/h (1 Bft)
06.07.2013 23:00 16,7 C 86 % 1023,7 hPa 0,0 l/m N 0,00 h 0 W/m 1,9 km/h (1 Bft)
07.07.2013 00:00 16,2 C 87 % 1023,6 hPa 0,0 l/m N 0,00 h 0 W/m 2,7 km/h (1 Bft)
07.07.2013 01:00 15,9 C 88 % 1023,6 hPa 0,0 l/m NO 0,00 h 0 W/m 3,6 km/h (1 Bft)
07.07.2013 02:00 15,2 C 91 % 1023,5 hPa 0,0 l/m NO 0,00 h 0 W/m 3,3 km/h (1 Bft)
07.07.2013 03:00 15,1 C 92 % 1023,3 hPa 0,0 l/m NO 0,00 h 0 W/m 5,3 km/h (1 Bft)
07.07.2013 04:00 15,0 C 92 % 1023,1 hPa 0,0 l/m N-NO 0,00 h 0 W/m 6,8 km/h (2 Bft)
07.07.2013 05:00 14,3 C 95 % 1023,0 hPa 0,0 l/m N-NO 0,00 h 7 W/m 5,6 km/h (1 Bft)
07.07.2013 06:00 14,8 C 95 % 1023,0 hPa 0,0 l/m N-NO 0,00 h 42 W/m 6,8 km/h (2 Bft)
07.07.2013 07:00 16,0 C 92 % 1023,1 hPa 0,0 l/m NO 0,25 h 143 W/m 9,5 km/h (2 Bft)
07.07.2013 08:00 18,0 C 87 % 1023,3 hPa 0,0 l/m O-NO 0,92 h 309 W/m 12,9 km/h (3 Bft)
07.07.2013 09:00 19,6 C 81 % 1023,5 hPa 0,0 l/m O-SO 0,58 h 382 W/m 18,6 km/h (3 Bft)
07.07.2013 10:00 21,0 C 75 % 1023,6 hPa 0,0 l/m O 1,00 h 639 W/m 23,6 km/h (4 Bft)
07.07.2013 11:00 22,3 C 69 % 1023,3 hPa 0,0 l/m O-NO 0,75 h 651 W/m 23,0 km/h (4 Bft)
07.07.2013 12:00 23,2 C 66 % 1023,1 hPa 0,0 l/m NO 0,33 h 399 W/m 23,0 km/h (4 Bft)
07.07.2013 13:00 24,1 C 62 % 1023,1 hPa 0,0 l/m O-SO 0,50 h 591 W/m 23,6 km/h (4 Bft)
07.07.2013 14:00 25,1 C 58 % 1022,9 hPa 0,0 l/m NO 0,92 h 835 W/m 25,6 km/h (4 Bft)
07.07.2013 15:00 25,9 C 55 % 1022,7 hPa 0,0 l/m O-NO 0,92 h 765 W/m 25,7 km/h (4 Bft)
07.07.2013 16:00 25,7 C 55 % 1022,4 hPa 0,0 l/m O 0,75 h 557 W/m 25,3 km/h (4 Bft)
07.07.2013 17:00 25,7 C 56 % 1022,1 hPa 0,0 l/m NO 0,83 h 493 W/m 20,6 km/h (4 Bft)
07.07.2013 18:00 25,1 C 58 % 1022,2 hPa 0,0 l/m O-NO 1,00 h 384 W/m 20,9 km/h (4 Bft)
07.07.2013 19:00 24,4 C 60 % 1022,3 hPa 0,0 l/m O-NO 0,83 h 198 W/m 17,7 km/h (3 Bft)
07.07.2013 20:00 23,0 C 65 % 1022,6 hPa 0,0 l/m O-NO 0,08 h 35 W/m 13,4 km/h (3 Bft)
07.07.2013 21:00 21,8 C 69 % 1022,9 hPa 0,0 l/m O-NO 0,00 h 9 W/m 11,6 km/h (2 Bft)
07.07.2013 22:00 20,6 C 73 % 1023,1 hPa 0,0 l/m O-NO 0,00 h 0 W/m 9,4 km/h (2 Bft)
07.07.2013 23:00 19,7 C 76 % 1023,2 hPa 0,0 l/m NO 0,00 h 0 W/m 8,6 km/h (2 Bft)
Min-Datum _ 01.07.13 02.07.13 03.07.13 - - - - 01.07.13
_ Min-Zeit 05:45 16:45 06:55 - - - - 00:00
Minimum _ 9,1 C 39 % 1009,1 hPa - - - - 0,0 km/h (0 Bft)
Max-Datum _ 02.07.13 04.07.13 06.07.13 04.07.13 - 01.07.13 01.07.13 03.07.13
_ Max-Zeit 15:40 03:05 00:00 23:35 - 07:05 13:05 11:25
Maximum _ 26,6 C 99 % 1025,9 hPa 7,6 l/m - 0,08 h 1032 W/m 35,4 km/h
SW (5 Bft)
Durchschnitt _ 18,1 C 80 % 1018,8 hPa #14,2 l/m SW #48:30 h 305 W/m 8,9 km/h (2 Bft)